sensor_id;sensor_type;location;lat;lon;timestamp;temperature;humidity
20284;DHT22;10301;50.832;4.080;2023-07-22T00:01:14;16.70;1.00
20284;DHT22;10301;50.832;4.080;2023-07-22T00:03:40;16.60;1.00
20284;DHT22;10301;50.832;4.080;2023-07-22T00:06:07;16.60;1.00
20284;DHT22;10301;50.832;4.080;2023-07-22T00:08:34;16.60;1.00
20284;DHT22;10301;50.832;4.080;2023-07-22T00:11:00;16.80;1.00
20284;DHT22;10301;50.832;4.080;2023-07-22T00:13:26;16.90;1.00
20284;DHT22;10301;50.832;4.080;2023-07-22T00:15:55;16.80;1.00
20284;DHT22;10301;50.832;4.080;2023-07-22T00:18:21;16.80;1.00
20284;DHT22;10301;50.832;4.080;2023-07-22T00:20:47;16.90;1.00
20284;DHT22;10301;50.832;4.080;2023-07-22T00:23:13;16.80;1.00
20284;DHT22;10301;50.832;4.080;2023-07-22T00:25:41;16.90;1.00
20284;DHT22;10301;50.832;4.080;2023-07-22T00:28:06;16.90;1.00
20284;DHT22;10301;50.832;4.080;2023-07-22T00:30:32;16.80;1.00
20284;DHT22;10301;50.832;4.080;2023-07-22T00:32:58;16.90;1.00
20284;DHT22;10301;50.832;4.080;2023-07-22T00:35:23;16.80;1.00
20284;DHT22;10301;50.832;4.080;2023-07-22T00:37:49;16.80;1.00
20284;DHT22;10301;50.832;4.080;2023-07-22T00:40:15;17.00;1.00
20284;DHT22;10301;50.832;4.080;2023-07-22T00:42:41;17.00;1.00
20284;DHT22;10301;50.832;4.080;2023-07-22T00:45:07;16.90;1.00
20284;DHT22;10301;50.832;4.080;2023-07-22T00:47:34;16.60;1.00
20284;DHT22;10301;50.832;4.080;2023-07-22T00:50:02;16.70;1.00
20284;DHT22;10301;50.832;4.080;2023-07-22T00:52:28;16.40;1.00
20284;DHT22;10301;50.832;4.080;2023-07-22T00:54:54;16.00;1.00
20284;DHT22;10301;50.832;4.080;2023-07-22T00:57:21;16.10;1.00
20284;DHT22;10301;50.832;4.080;2023-07-22T00:59:47;16.30;1.00
20284;DHT22;10301;50.832;4.080;2023-07-22T01:02:13;16.40;1.00
20284;DHT22;10301;50.832;4.080;2023-07-22T01:04:39;16.20;1.00
20284;DHT22;10301;50.832;4.080;2023-07-22T01:07:05;15.90;1.00
20284;DHT22;10301;50.832;4.080;2023-07-22T01:09:40;15.90;1.00
20284;DHT22;10301;50.832;4.080;2023-07-22T01:12:06;15.70;1.00
20284;DHT22;10301;50.832;4.080;2023-07-22T01:14:37;15.80;1.00
20284;DHT22;10301;50.832;4.080;2023-07-22T01:17:07;16.10;1.00
20284;DHT22;10301;50.832;4.080;2023-07-22T01:19:33;16.30;1.00
20284;DHT22;10301;50.832;4.080;2023-07-22T01:22:06;16.30;1.00
20284;DHT22;10301;50.832;4.080;2023-07-22T01:24:33;16.40;1.00
20284;DHT22;10301;50.832;4.080;2023-07-22T01:26:59;16.10;1.00
20284;DHT22;10301;50.832;4.080;2023-07-22T01:29:25;15.90;1.00
20284;DHT22;10301;50.832;4.080;2023-07-22T01:31:53;15.80;1.00
20284;DHT22;10301;50.832;4.080;2023-07-22T01:34:19;15.70;1.00
20284;DHT22;10301;50.832;4.080;2023-07-22T01:36:46;15.70;1.00
20284;DHT22;10301;50.832;4.080;2023-07-22T01:39:13;16.00;1.00
20284;DHT22;10301;50.832;4.080;2023-07-22T01:41:39;16.00;1.00
20284;DHT22;10301;50.832;4.080;2023-07-22T01:44:05;16.10;1.00
20284;DHT22;10301;50.832;4.080;2023-07-22T01:46:30;16.20;1.00
20284;DHT22;10301;50.832;4.080;2023-07-22T01:48:56;16.10;1.00
20284;DHT22;10301;50.832;4.080;2023-07-22T01:51:22;15.90;1.00
20284;DHT22;10301;50.832;4.080;2023-07-22T01:53:48;15.80;1.00
20284;DHT22;10301;50.832;4.080;2023-07-22T01:56:15;16.10;1.00
20284;DHT22;10301;50.832;4.080;2023-07-22T01:58:42;15.90;1.00
20284;DHT22;10301;50.832;4.080;2023-07-22T02:01:08;15.80;1.00
20284;DHT22;10301;50.832;4.080;2023-07-22T02:03:33;15.90;1.00
20284;DHT22;10301;50.832;4.080;2023-07-22T02:06:06;15.80;1.00
20284;DHT22;10301;50.832;4.080;2023-07-22T02:08:32;15.60;1.00
20284;DHT22;10301;50.832;4.080;2023-07-22T02:11:06;15.70;1.00
20284;DHT22;10301;50.832;4.080;2023-07-22T02:13:33;15.70;1.00
20284;DHT22;10301;50.832;4.080;2023-07-22T02:15:59;15.70;1.00
20284;DHT22;10301;50.832;4.080;2023-07-22T02:18:25;15.70;1.00
20284;DHT22;10301;50.832;4.080;2023-07-22T02:20:50;15.60;1.00
20284;DHT22;10301;50.832;4.080;2023-07-22T02:23:16;15.40;3.40
20284;DHT22;10301;50.832;4.080;2023-07-22T02:25:42;15.30;6.80
20284;DHT22;10301;50.832;4.080;2023-07-22T02:28:08;15.10;21.00
20284;DHT22;10301;50.832;4.080;2023-07-22T02:30:36;15.20;18.30
20284;DHT22;10301;50.832;4.080;2023-07-22T02:33:04;15.30;13.10
20284;DHT22;10301;50.832;4.080;2023-07-22T02:35:30;15.30;11.30
20284;DHT22;10301;50.832;4.080;2023-07-22T02:37:56;15.10;22.50
20284;DHT22;10301;50.832;4.080;2023-07-22T02:40:21;15.10;28.00
20284;DHT22;10301;50.832;4.080;2023-07-22T02:42:47;15.10;26.00
20284;DHT22;10301;50.832;4.080;2023-07-22T02:45:12;15.40;15.80
20284;DHT22;10301;50.832;4.080;2023-07-22T02:47:38;15.50;3.10
20284;DHT22;10301;50.832;4.080;2023-07-22T02:50:07;15.30;13.50
20284;DHT22;10301;50.832;4.080;2023-07-22T02:52:34;15.30;15.30
20284;DHT22;10301;50.832;4.080;2023-07-22T02:57:33;15.10;28.20
20284;DHT22;10301;50.832;4.080;2023-07-22T02:59:59;14.80;48.20
20284;DHT22;10301;50.832;4.080;2023-07-22T03:02:25;15.00;37.50
20284;DHT22;10301;50.832;4.080;2023-07-22T03:04:50;14.90;47.00
20284;DHT22;10301;50.832;4.080;2023-07-22T03:07:16;15.10;43.20
20284;DHT22;10301;50.832;4.080;2023-07-22T03:09:42;14.80;48.90
20284;DHT22;10301;50.832;4.080;2023-07-22T03:12:08;14.90;52.20
20284;DHT22;10301;50.832;4.080;2023-07-22T03:14:33;14.70;62.90
20284;DHT22;10301;50.832;4.080;2023-07-22T03:17:02;14.80;55.10
20284;DHT22;10301;50.832;4.080;2023-07-22T03:19:29;14.90;55.90
20284;DHT22;10301;50.832;4.080;2023-07-22T03:21:55;14.90;56.50
20284;DHT22;10301;50.832;4.080;2023-07-22T03:24:20;15.00;53.30
20284;DHT22;10301;50.832;4.080;2023-07-22T03:26:46;15.00;56.10
20284;DHT22;10301;50.832;4.080;2023-07-22T03:29:12;15.00;53.30
20284;DHT22;10301;50.832;4.080;2023-07-22T03:31:37;15.10;51.40
20284;DHT22;10301;50.832;4.080;2023-07-22T03:34:03;15.20;47.90
20284;DHT22;10301;50.832;4.080;2023-07-22T03:36:29;15.10;56.50
20284;DHT22;10301;50.832;4.080;2023-07-22T03:38:54;15.20;52.20
20284;DHT22;10301;50.832;4.080;2023-07-22T03:41:20;15.30;47.10
20284;DHT22;10301;50.832;4.080;2023-07-22T03:43:46;15.00;53.20
20284;DHT22;10301;50.832;4.080;2023-07-22T03:46:11;15.00;63.80
20284;DHT22;10301;50.832;4.080;2023-07-22T03:48:37;15.00;65.10
20284;DHT22;10301;50.832;4.080;2023-07-22T03:51:03;15.10;56.00
20284;DHT22;10301;50.832;4.080;2023-07-22T03:53:28;15.10;55.10
20284;DHT22;10301;50.832;4.080;2023-07-22T03:55:54;14.80;70.70
20284;DHT22;10301;50.832;4.080;2023-07-22T03:58:20;14.80;70.80
20284;DHT22;10301;50.832;4.080;2023-07-22T04:00:49;15.00;61.90
20284;DHT22;10301;50.832;4.080;2023-07-22T04:03:14;15.00;63.60
20284;DHT22;10301;50.832;4.080;2023-07-22T04:05:40;14.90;70.70
20284;DHT22;10301;50.832;4.080;2023-07-22T04:08:06;15.00;66.90
20284;DHT22;10301;50.832;4.080;2023-07-22T04:10:31;15.00;70.00
20284;DHT22;10301;50.832;4.080;2023-07-22T04:12:57;15.00;68.70
20284;DHT22;10301;50.832;4.080;2023-07-22T04:15:23;14.90;75.60
20284;DHT22;10301;50.832;4.080;2023-07-22T04:17:48;14.90;72.90
20284;DHT22;10301;50.832;4.080;2023-07-22T04:20:14;14.90;77.50
20284;DHT22;10301;50.832;4.080;2023-07-22T04:22:41;15.00;71.30
20284;DHT22;10301;50.832;4.080;2023-07-22T04:25:07;14.80;80.60
20284;DHT22;10301;50.832;4.080;2023-07-22T04:27:34;14.70;88.50
20284;DHT22;10301;50.832;4.080;2023-07-22T04:30:00;14.90;80.90
20284;DHT22;10301;50.832;4.080;2023-07-22T04:32:25;14.90;73.20
20284;DHT22;10301;50.832;4.080;2023-07-22T04:34:51;14.70;84.40
20284;DHT22;10301;50.832;4.080;2023-07-22T04:37:17;14.80;78.80
20284;DHT22;10301;50.832;4.080;2023-07-22T04:39:47;14.80;81.90
20284;DHT22;10301;50.832;4.080;2023-07-22T04:42:13;14.80;85.30
20284;DHT22;10301;50.832;4.080;2023-07-22T04:44:39;14.90;79.50
20284;DHT22;10301;50.832;4.080;2023-07-22T04:47:06;15.00;75.80
20284;DHT22;10301;50.832;4.080;2023-07-22T04:49:32;15.00;73.40
20284;DHT22;10301;50.832;4.080;2023-07-22T04:51:57;15.10;70.00
20284;DHT22;10301;50.832;4.080;2023-07-22T04:54:23;14.80;78.00
20284;DHT22;10301;50.832;4.080;2023-07-22T04:56:48;14.60;88.70
20284;DHT22;10301;50.832;4.080;2023-07-22T04:59:14;14.60;93.00
20284;DHT22;10301;50.832;4.080;2023-07-22T05:01:40;14.60;92.20
20284;DHT22;10301;50.832;4.080;2023-07-22T05:04:06;14.80;89.20
20284;DHT22;10301;50.832;4.080;2023-07-22T05:06:32;14.80;85.90
20284;DHT22;10301;50.832;4.080;2023-07-22T05:08:58;14.80;84.90
20284;DHT22;10301;50.832;4.080;2023-07-22T05:11:24;14.90;82.40
20284;DHT22;10301;50.832;4.080;2023-07-22T05:13:50;14.90;80.40
20284;DHT22;10301;50.832;4.080;2023-07-22T05:16:15;15.00;81.40
20284;DHT22;10301;50.832;4.080;2023-07-22T05:18:41;15.10;74.20
20284;DHT22;10301;50.832;4.080;2023-07-22T05:21:07;15.20;69.80
20284;DHT22;10301;50.832;4.080;2023-07-22T05:23:33;15.20;60.00
20284;DHT22;10301;50.832;4.080;2023-07-22T05:25:58;15.00;76.50
20284;DHT22;10301;50.832;4.080;2023-07-22T05:28:24;15.20;73.10
20284;DHT22;10301;50.832;4.080;2023-07-22T05:30:50;15.30;66.70
20284;DHT22;10301;50.832;4.080;2023-07-22T05:33:15;15.50;55.60
20284;DHT22;10301;50.832;4.080;2023-07-22T05:35:41;15.90;41.20
20284;DHT22;10301;50.832;4.080;2023-07-22T05:38:07;15.80;36.90
20284;DHT22;10301;50.832;4.080;2023-07-22T05:40:32;15.90;33.00
20284;DHT22;10301;50.832;4.080;2023-07-22T05:42:58;15.90;31.30
20284;DHT22;10301;50.832;4.080;2023-07-22T05:45:24;15.90;31.30
20284;DHT22;10301;50.832;4.080;2023-07-22T05:47:49;15.50;51.50
20284;DHT22;10301;50.832;4.080;2023-07-22T05:50:15;15.60;61.90
20284;DHT22;10301;50.832;4.080;2023-07-22T05:52:41;15.80;50.70
20284;DHT22;10301;50.832;4.080;2023-07-22T05:55:06;16.10;29.40
20284;DHT22;10301;50.832;4.080;2023-07-22T05:57:32;16.20;28.30
20284;DHT22;10301;50.832;4.080;2023-07-22T05:59:58;16.40;20.60
20284;DHT22;10301;50.832;4.080;2023-07-22T06:02:23;16.60;13.70
20284;DHT22;10301;50.832;4.080;2023-07-22T06:04:49;16.40;22.30
20284;DHT22;10301;50.832;4.080;2023-07-22T06:07:15;16.40;14.00
20284;DHT22;10301;50.832;4.080;2023-07-22T06:09:40;16.30;28.60
20284;DHT22;10301;50.832;4.080;2023-07-22T06:12:06;16.30;29.70
20284;DHT22;10301;50.832;4.080;2023-07-22T06:14:32;16.50;24.60
20284;DHT22;10301;50.832;4.080;2023-07-22T06:16:58;16.70;10.80
20284;DHT22;10301;50.832;4.080;2023-07-22T06:19:23;16.90;1.10
20284;DHT22;10301;50.832;4.080;2023-07-22T06:21:49;16.80;1.00
20284;DHT22;10301;50.832;4.080;2023-07-22T06:24:15;16.80;4.30
20284;DHT22;10301;50.832;4.080;2023-07-22T06:26:41;16.80;7.30
20284;DHT22;10301;50.832;4.080;2023-07-22T06:29:07;16.90;6.70
20284;DHT22;10301;50.832;4.080;2023-07-22T06:31:32;16.90;1.00
20284;DHT22;10301;50.832;4.080;2023-07-22T06:33:58;17.10;1.60
20284;DHT22;10301;50.832;4.080;2023-07-22T06:36:28;17.20;1.00
20284;DHT22;10301;50.832;4.080;2023-07-22T06:38:54;17.10;1.00
20284;DHT22;10301;50.832;4.080;2023-07-22T06:41:20;17.10;1.00
20284;DHT22;10301;50.832;4.080;2023-07-22T06:43:46;17.20;1.00
20284;DHT22;10301;50.832;4.080;2023-07-22T06:46:11;17.30;1.00
20284;DHT22;10301;50.832;4.080;2023-07-22T06:48:37;17.30;1.00
20284;DHT22;10301;50.832;4.080;2023-07-22T06:51:03;17.30;1.00
20284;DHT22;10301;50.832;4.080;2023-07-22T06:53:28;17.20;1.00
20284;DHT22;10301;50.832;4.080;2023-07-22T06:55:54;17.30;1.00
20284;DHT22;10301;50.832;4.080;2023-07-22T06:58:20;17.30;1.00
20284;DHT22;10301;50.832;4.080;2023-07-22T07:00:48;17.40;1.00
20284;DHT22;10301;50.832;4.080;2023-07-22T07:03:13;17.30;1.00
20284;DHT22;10301;50.832;4.080;2023-07-22T07:05:39;17.30;1.00
20284;DHT22;10301;50.832;4.080;2023-07-22T07:08:07;17.20;1.00
20284;DHT22;10301;50.832;4.080;2023-07-22T07:10:38;17.40;1.00
20284;DHT22;10301;50.832;4.080;2023-07-22T07:13:04;17.90;1.00
20284;DHT22;10301;50.832;4.080;2023-07-22T07:15:30;17.80;1.00
20284;DHT22;10301;50.832;4.080;2023-07-22T07:17:56;18.10;1.00
20284;DHT22;10301;50.832;4.080;2023-07-22T07:20:21;18.10;1.00
20284;DHT22;10301;50.832;4.080;2023-07-22T07:22:47;18.10;1.00
20284;DHT22;10301;50.832;4.080;2023-07-22T07:25:13;18.30;1.00
20284;DHT22;10301;50.832;4.080;2023-07-22T07:27:40;18.40;1.00
20284;DHT22;10301;50.832;4.080;2023-07-22T07:30:07;18.30;1.00
20284;DHT22;10301;50.832;4.080;2023-07-22T07:32:34;18.50;1.00
20284;DHT22;10301;50.832;4.080;2023-07-22T07:35:00;18.60;1.00
20284;DHT22;10301;50.832;4.080;2023-07-22T07:37:25;18.70;1.00
20284;DHT22;10301;50.832;4.080;2023-07-22T07:39:51;18.70;1.00
20284;DHT22;10301;50.832;4.080;2023-07-22T07:42:17;18.80;1.00
20284;DHT22;10301;50.832;4.080;2023-07-22T07:44:43;18.70;1.00
20284;DHT22;10301;50.832;4.080;2023-07-22T07:47:08;19.10;1.00
20284;DHT22;10301;50.832;4.080;2023-07-22T07:49:34;19.40;1.00
20284;DHT22;10301;50.832;4.080;2023-07-22T07:51:59;19.40;1.00
20284;DHT22;10301;50.832;4.080;2023-07-22T07:54:25;19.00;1.00
20284;DHT22;10301;50.832;4.080;2023-07-22T07:56:51;19.10;1.00
20284;DHT22;10301;50.832;4.080;2023-07-22T07:59:16;19.10;1.00
20284;DHT22;10301;50.832;4.080;2023-07-22T08:01:42;19.30;1.00
20284;DHT22;10301;50.832;4.080;2023-07-22T08:04:08;19.30;1.00
20284;DHT22;10301;50.832;4.080;2023-07-22T08:06:34;19.50;1.00
20284;DHT22;10301;50.832;4.080;2023-07-22T08:09:00;19.80;1.00
20284;DHT22;10301;50.832;4.080;2023-07-22T08:11:26;19.90;1.00
20284;DHT22;10301;50.832;4.080;2023-07-22T08:13:51;19.40;1.00
20284;DHT22;10301;50.832;4.080;2023-07-22T08:16:17;19.30;1.00
20284;DHT22;10301;50.832;4.080;2023-07-22T08:18:43;19.00;1.00
20284;DHT22;10301;50.832;4.080;2023-07-22T08:21:09;19.20;1.00
20284;DHT22;10301;50.832;4.080;2023-07-22T08:23:36;19.00;1.00
20284;DHT22;10301;50.832;4.080;2023-07-22T08:26:03;19.20;1.00
20284;DHT22;10301;50.832;4.080;2023-07-22T08:28:32;19.50;1.00
20284;DHT22;10301;50.832;4.080;2023-07-22T08:30:57;19.30;1.00
20284;DHT22;10301;50.832;4.080;2023-07-22T08:33:24;19.00;1.00
20284;DHT22;10301;50.832;4.080;2023-07-22T08:35:51;18.90;1.00
20284;DHT22;10301;50.832;4.080;2023-07-22T08:38:17;18.90;1.00
20284;DHT22;10301;50.832;4.080;2023-07-22T08:40:42;18.90;1.00
20284;DHT22;10301;50.832;4.080;2023-07-22T08:43:10;18.70;1.00
20284;DHT22;10301;50.832;4.080;2023-07-22T08:45:37;18.80;1.00
20284;DHT22;10301;50.832;4.080;2023-07-22T08:48:05;18.80;1.00
20284;DHT22;10301;50.832;4.080;2023-07-22T08:50:42;19.10;1.00
20284;DHT22;10301;50.832;4.080;2023-07-22T08:53:10;19.50;1.00
20284;DHT22;10301;50.832;4.080;2023-07-22T08:55:36;19.70;1.00
20284;DHT22;10301;50.832;4.080;2023-07-22T08:58:07;19.70;1.00
20284;DHT22;10301;50.832;4.080;2023-07-22T09:00:34;19.70;1.00
20284;DHT22;10301;50.832;4.080;2023-07-22T09:03:00;20.10;1.00
20284;DHT22;10301;50.832;4.080;2023-07-22T09:05:27;20.20;1.00
20284;DHT22;10301;50.832;4.080;2023-07-22T09:07:53;20.20;1.00
20284;DHT22;10301;50.832;4.080;2023-07-22T09:10:19;20.20;1.00
20284;DHT22;10301;50.832;4.080;2023-07-22T09:12:46;20.10;1.00
20284;DHT22;10301;50.832;4.080;2023-07-22T09:15:12;20.10;1.00
20284;DHT22;10301;50.832;4.080;2023-07-22T09:17:39;20.10;1.00
20284;DHT22;10301;50.832;4.080;2023-07-22T09:20:05;20.40;1.00
20284;DHT22;10301;50.832;4.080;2023-07-22T09:22:32;20.60;1.00
20284;DHT22;10301;50.832;4.080;2023-07-22T09:25:19;20.70;1.00
20284;DHT22;10301;50.832;4.080;2023-07-22T09:27:53;20.80;99.90
20284;DHT22;10301;50.832;4.080;2023-07-22T09:30:30;20.70;38.30
20284;DHT22;10301;50.832;4.080;2023-07-22T09:32:58;20.70;1.00
20284;DHT22;10301;50.832;4.080;2023-07-22T09:37:55;20.40;99.90
20284;DHT22;10301;50.832;4.080;2023-07-22T09:40:23;20.50;99.90
20284;DHT22;10301;50.832;4.080;2023-07-22T09:42:54;20.80;99.90
20284;DHT22;10301;50.832;4.080;2023-07-22T09:45:25;21.10;1.00
20284;DHT22;10301;50.832;4.080;2023-07-22T09:47:52;21.30;1.00
20284;DHT22;10301;50.832;4.080;2023-07-22T09:50:23;20.90;1.00
20284;DHT22;10301;50.832;4.080;2023-07-22T09:52:54;20.90;1.00
20284;DHT22;10301;50.832;4.080;2023-07-22T09:55:21;21.10;1.00
20284;DHT22;10301;50.832;4.080;2023-07-22T09:57:57;21.20;1.00
20284;DHT22;10301;50.832;4.080;2023-07-22T10:00:30;21.20;1.00
20284;DHT22;10301;50.832;4.080;2023-07-22T10:02:57;21.20;1.00
20284;DHT22;10301;50.832;4.080;2023-07-22T10:05:24;21.40;99.90
20284;DHT22;10301;50.832;4.080;2023-07-22T10:07:52;21.60;99.90
20284;DHT22;10301;50.832;4.080;2023-07-22T10:10:38;21.50;1.00
20284;DHT22;10301;50.832;4.080;2023-07-22T10:13:05;21.40;1.00
20284;DHT22;10301;50.832;4.080;2023-07-22T10:15:34;21.60;1.00
20284;DHT22;10301;50.832;4.080;2023-07-22T10:18:01;21.70;1.00
20284;DHT22;10301;50.832;4.080;2023-07-22T10:20:28;21.90;1.00
20284;DHT22;10301;50.832;4.080;2023-07-22T10:22:55;21.90;99.90
20284;DHT22;10301;50.832;4.080;2023-07-22T10:25:21;22.00;1.00
20284;DHT22;10301;50.832;4.080;2023-07-22T10:27:51;21.80;1.00
20284;DHT22;10301;50.832;4.080;2023-07-22T10:30:17;21.90;1.00
20284;DHT22;10301;50.832;4.080;2023-07-22T10:32:48;22.20;99.90
20284;DHT22;10301;50.832;4.080;2023-07-22T10:37:46;22.40;1.00
20284;DHT22;10301;50.832;4.080;2023-07-22T10:42:57;21.90;1.00
20284;DHT22;10301;50.832;4.080;2023-07-22T10:45:28;21.90;99.90
20284;DHT22;10301;50.832;4.080;2023-07-22T10:48:05;22.40;1.00
20284;DHT22;10301;50.832;4.080;2023-07-22T10:50:51;22.60;1.00
20284;DHT22;10301;50.832;4.080;2023-07-22T10:56:19;23.00;99.90
20284;DHT22;10301;50.832;4.080;2023-07-22T11:04:23;22.50;1.00
20284;DHT22;10301;50.832;4.080;2023-07-22T11:07:05;22.40;1.00
20284;DHT22;10301;50.832;4.080;2023-07-22T11:14:31;22.80;1.00
20284;DHT22;10301;50.832;4.080;2023-07-22T11:16:58;22.90;1.00
20284;DHT22;10301;50.832;4.080;2023-07-22T11:19:25;22.60;1.00
20284;DHT22;10301;50.832;4.080;2023-07-22T11:21:52;22.60;1.00
20284;DHT22;10301;50.832;4.080;2023-07-22T11:24:19;22.30;1.00
20284;DHT22;10301;50.832;4.080;2023-07-22T11:26:46;22.30;1.00
20284;DHT22;10301;50.832;4.080;2023-07-22T11:29:13;22.50;1.00
20284;DHT22;10301;50.832;4.080;2023-07-22T11:31:44;22.70;1.00
20284;DHT22;10301;50.832;4.080;2023-07-22T11:34:11;22.70;1.00
20284;DHT22;10301;50.832;4.080;2023-07-22T11:36:37;22.80;99.90
20284;DHT22;10301;50.832;4.080;2023-07-22T11:39:04;22.40;1.00
20284;DHT22;10301;50.832;4.080;2023-07-22T11:41:30;22.60;99.90
20284;DHT22;10301;50.832;4.080;2023-07-22T11:43:58;22.70;99.90
20284;DHT22;10301;50.832;4.080;2023-07-22T11:46:24;22.80;1.00
20284;DHT22;10301;50.832;4.080;2023-07-22T11:48:51;22.80;1.00
20284;DHT22;10301;50.832;4.080;2023-07-22T11:51:24;22.70;1.00
20284;DHT22;10301;50.832;4.080;2023-07-22T11:53:51;22.80;99.90
20284;DHT22;10301;50.832;4.080;2023-07-22T11:56:22;22.90;1.00
20284;DHT22;10301;50.832;4.080;2023-07-22T11:58:56;22.80;1.00
20284;DHT22;10301;50.832;4.080;2023-07-22T12:01:22;22.70;99.90
20284;DHT22;10301;50.832;4.080;2023-07-22T12:03:49;22.70;99.90
20284;DHT22;10301;50.832;4.080;2023-07-22T12:06:15;22.70;99.90
20284;DHT22;10301;50.832;4.080;2023-07-22T12:08:45;22.50;99.90
20284;DHT22;10301;50.832;4.080;2023-07-22T12:11:19;22.60;99.90
20284;DHT22;10301;50.832;4.080;2023-07-22T12:13:45;22.90;6.70
20284;DHT22;10301;50.832;4.080;2023-07-22T12:16:12;23.00;1.00
20284;DHT22;10301;50.832;4.080;2023-07-22T12:21:08;23.50;1.00
20284;DHT22;10301;50.832;4.080;2023-07-22T12:23:35;23.30;1.00
20284;DHT22;10301;50.832;4.080;2023-07-22T12:26:01;23.10;1.00
20284;DHT22;10301;50.832;4.080;2023-07-22T12:28:27;23.30;1.00
20284;DHT22;10301;50.832;4.080;2023-07-22T12:30:52;23.70;1.00
20284;DHT22;10301;50.832;4.080;2023-07-22T12:33:18;23.70;1.00
20284;DHT22;10301;50.832;4.080;2023-07-22T12:35:43;23.70;1.00
20284;DHT22;10301;50.832;4.080;2023-07-22T12:38:09;23.90;1.00
20284;DHT22;10301;50.832;4.080;2023-07-22T12:40:35;23.70;1.00
20284;DHT22;10301;50.832;4.080;2023-07-22T12:43:01;23.70;1.00
20284;DHT22;10301;50.832;4.080;2023-07-22T12:45:26;23.50;1.00
20284;DHT22;10301;50.832;4.080;2023-07-22T12:47:52;23.50;1.00
20284;DHT22;10301;50.832;4.080;2023-07-22T12:50:18;23.40;26.50
20284;DHT22;10301;50.832;4.080;2023-07-22T12:52:43;23.40;1.00
20284;DHT22;10301;50.832;4.080;2023-07-22T12:55:09;23.30;1.00
20284;DHT22;10301;50.832;4.080;2023-07-22T12:57:34;23.20;29.00
20284;DHT22;10301;50.832;4.080;2023-07-22T13:00:00;23.30;96.20
20284;DHT22;10301;50.832;4.080;2023-07-22T13:02:26;23.80;7.80
20284;DHT22;10301;50.832;4.080;2023-07-22T13:04:52;23.80;1.00
20284;DHT22;10301;50.832;4.080;2023-07-22T13:07:17;24.00;1.00
20284;DHT22;10301;50.832;4.080;2023-07-22T13:09:43;23.80;1.00
20284;DHT22;10301;50.832;4.080;2023-07-22T13:12:11;23.80;1.00
20284;DHT22;10301;50.832;4.080;2023-07-22T13:14:37;23.60;99.90
20284;DHT22;10301;50.832;4.080;2023-07-22T13:17:03;23.30;1.00
20284;DHT22;10301;50.832;4.080;2023-07-22T13:19:28;23.00;1.00
20284;DHT22;10301;50.832;4.080;2023-07-22T13:21:54;22.70;1.00
20284;DHT22;10301;50.832;4.080;2023-07-22T13:24:21;22.70;1.00
20284;DHT22;10301;50.832;4.080;2023-07-22T13:26:47;22.60;8.20
20284;DHT22;10301;50.832;4.080;2023-07-22T13:29:12;22.70;53.00
20284;DHT22;10301;50.832;4.080;2023-07-22T13:31:39;23.20;1.00
20284;DHT22;10301;50.832;4.080;2023-07-22T13:34:04;23.70;1.00
20284;DHT22;10301;50.832;4.080;2023-07-22T13:36:30;23.70;99.90
20284;DHT22;10301;50.832;4.080;2023-07-22T13:38:55;23.40;1.00
20284;DHT22;10301;50.832;4.080;2023-07-22T13:41:21;23.10;1.00
20284;DHT22;10301;50.832;4.080;2023-07-22T13:43:47;23.00;1.00
20284;DHT22;10301;50.832;4.080;2023-07-22T13:46:12;22.70;1.00
20284;DHT22;10301;50.832;4.080;2023-07-22T13:48:38;22.30;1.00
20284;DHT22;10301;50.832;4.080;2023-07-22T13:51:04;22.10;1.00
20284;DHT22;10301;50.832;4.080;2023-07-22T13:53:29;22.00;99.90
20284;DHT22;10301;50.832;4.080;2023-07-22T13:55:55;21.80;99.90
20284;DHT22;10301;50.832;4.080;2023-07-22T13:58:20;21.60;1.00
20284;DHT22;10301;50.832;4.080;2023-07-22T14:00:46;21.60;1.00
20284;DHT22;10301;50.832;4.080;2023-07-22T14:03:12;21.50;18.80
20284;DHT22;10301;50.832;4.080;2023-07-22T14:05:37;21.60;99.90
20284;DHT22;10301;50.832;4.080;2023-07-22T14:08:03;21.60;99.90
20284;DHT22;10301;50.832;4.080;2023-07-22T14:10:29;21.90;1.00
20284;DHT22;10301;50.832;4.080;2023-07-22T14:12:54;22.20;1.00
20284;DHT22;10301;50.832;4.080;2023-07-22T14:15:20;22.40;90.60
20284;DHT22;10301;50.832;4.080;2023-07-22T14:17:46;22.40;1.00
20284;DHT22;10301;50.832;4.080;2023-07-22T14:20:11;22.40;1.00
20284;DHT22;10301;50.832;4.080;2023-07-22T14:22:37;22.30;99.90
20284;DHT22;10301;50.832;4.080;2023-07-22T14:25:03;22.30;99.90
20284;DHT22;10301;50.832;4.080;2023-07-22T14:27:29;22.50;1.00
20284;DHT22;10301;50.832;4.080;2023-07-22T14:29:54;22.70;1.00
20284;DHT22;10301;50.832;4.080;2023-07-22T14:32:20;22.90;1.00
20284;DHT22;10301;50.832;4.080;2023-07-22T14:34:46;23.40;99.90
20284;DHT22;10301;50.832;4.080;2023-07-22T14:37:11;23.70;1.00
20284;DHT22;10301;50.832;4.080;2023-07-22T14:39:37;23.70;1.00
20284;DHT22;10301;50.832;4.080;2023-07-22T14:42:02;23.60;1.00
20284;DHT22;10301;50.832;4.080;2023-07-22T14:44:29;23.90;1.00
20284;DHT22;10301;50.832;4.080;2023-07-22T14:46:55;24.40;99.90
20284;DHT22;10301;50.832;4.080;2023-07-22T14:49:20;24.60;1.00
20284;DHT22;10301;50.832;4.080;2023-07-22T14:51:46;24.70;99.90
20284;DHT22;10301;50.832;4.080;2023-07-22T14:54:12;24.70;25.70
20284;DHT22;10301;50.832;4.080;2023-07-22T14:56:38;24.90;96.00
20284;DHT22;10301;50.832;4.080;2023-07-22T14:59:03;25.20;1.00
20284;DHT22;10301;50.832;4.080;2023-07-22T15:01:37;25.10;1.00
20284;DHT22;10301;50.832;4.080;2023-07-22T15:04:03;24.90;1.00
20284;DHT22;10301;50.832;4.080;2023-07-22T15:06:28;24.60;1.00
20284;DHT22;10301;50.832;4.080;2023-07-22T15:08:56;24.10;1.00
20284;DHT22;10301;50.832;4.080;2023-07-22T15:11:22;23.70;99.90
20284;DHT22;10301;50.832;4.080;2023-07-22T15:13:48;23.70;99.90
20284;DHT22;10301;50.832;4.080;2023-07-22T15:16:14;23.70;99.90
20284;DHT22;10301;50.832;4.080;2023-07-22T15:18:41;23.70;99.90
20284;DHT22;10301;50.832;4.080;2023-07-22T15:21:07;23.30;1.00
20284;DHT22;10301;50.832;4.080;2023-07-22T15:23:32;23.50;99.90
20284;DHT22;10301;50.832;4.080;2023-07-22T15:25:58;23.40;1.00
20284;DHT22;10301;50.832;4.080;2023-07-22T15:28:25;23.50;1.00
20284;DHT22;10301;50.832;4.080;2023-07-22T15:30:53;23.40;99.90
20284;DHT22;10301;50.832;4.080;2023-07-22T15:33:18;23.60;1.00
20284;DHT22;10301;50.832;4.080;2023-07-22T15:35:44;23.50;1.00
20284;DHT22;10301;50.832;4.080;2023-07-22T15:38:10;23.50;1.00
20284;DHT22;10301;50.832;4.080;2023-07-22T15:40:36;23.40;1.00
20284;DHT22;10301;50.832;4.080;2023-07-22T15:43:02;23.30;1.00
20284;DHT22;10301;50.832;4.080;2023-07-22T15:45:27;22.80;99.90
20284;DHT22;10301;50.832;4.080;2023-07-22T15:47:53;22.80;99.90
20284;DHT22;10301;50.832;4.080;2023-07-22T15:50:19;22.90;99.90
20284;DHT22;10301;50.832;4.080;2023-07-22T15:52:45;22.80;99.90
20284;DHT22;10301;50.832;4.080;2023-07-22T15:55:12;22.70;99.90
20284;DHT22;10301;50.832;4.080;2023-07-22T15:57:38;22.70;99.90
20284;DHT22;10301;50.832;4.080;2023-07-22T16:00:04;22.60;99.90
20284;DHT22;10301;50.832;4.080;2023-07-22T16:02:34;22.70;1.00